createdAt,value
2022-09-24T00:02:21.898Z,14.70
2022-09-24T00:04:51.696Z,14.70
2022-09-24T00:07:20.980Z,14.70
2022-09-24T00:09:49.435Z,14.70
2022-09-24T00:12:18.848Z,14.70
2022-09-24T00:14:47.226Z,14.70
2022-09-24T00:17:15.744Z,14.70
2022-09-24T00:19:44.354Z,14.70
2022-09-24T00:22:14.120Z,14.60
2022-09-24T00:24:59.817Z,14.60
2022-09-24T00:27:28.808Z,14.60
2022-09-24T00:29:57.215Z,14.60
2022-09-24T00:32:25.675Z,14.70
2022-09-24T00:34:54.177Z,14.60
2022-09-24T00:37:23.954Z,14.50
2022-09-24T00:39:52.345Z,14.50
2022-09-24T00:42:21.961Z,14.50
2022-09-24T00:44:54.357Z,14.50
2022-09-24T00:47:35.271Z,14.50
2022-09-24T00:50:14.017Z,14.50
2022-09-24T00:52:48.163Z,14.40
2022-09-24T00:55:17.374Z,14.40
2022-09-24T00:57:48.644Z,14.40
2022-09-24T01:00:17.099Z,14.40
2022-09-24T01:02:49.547Z,14.40
2022-09-24T01:05:18.216Z,14.40
2022-09-24T01:07:48.899Z,14.40
2022-09-24T01:10:39.065Z,14.40
2022-09-24T01:13:18.208Z,14.40
2022-09-24T01:15:52.014Z,14.30
2022-09-24T01:18:28.184Z,14.30
2022-09-24T01:21:26.329Z,14.30
2022-09-24T01:24:32.480Z,14.30
2022-09-24T01:27:08.872Z,14.30
2022-09-24T01:29:47.076Z,14.30
2022-09-24T01:32:27.719Z,14.20
2022-09-24T01:35:02.161Z,14.20
2022-09-24T01:37:34.269Z,14.20
2022-09-24T01:40:04.106Z,14.30
2022-09-24T01:42:34.189Z,14.20
2022-09-24T01:45:05.622Z,14.20
2022-09-24T01:47:39.833Z,14.20
2022-09-24T01:50:10.747Z,14.20
2022-09-24T01:52:44.222Z,14.10
2022-09-24T01:55:16.938Z,14.10
2022-09-24T01:57:50.377Z,14.10
2022-09-24T02:00:22.118Z,14.20
2022-09-24T02:02:56.417Z,14.10
2022-09-24T02:05:31.507Z,14.10
2022-09-24T02:08:06.170Z,14.10
2022-09-24T02:10:42.298Z,14.10
2022-09-24T02:13:14.011Z,14.10
2022-09-24T02:15:49.460Z,14.10
2022-09-24T02:18:20.991Z,14.10
2022-09-24T02:20:52.105Z,14.10
2022-09-24T02:23:22.229Z,14.00
2022-09-24T02:25:54.933Z,14.00
2022-09-24T02:28:23.330Z,14.00
2022-09-24T02:31:00.232Z,14.00
2022-09-24T02:33:49.206Z,14.00
2022-09-24T02:36:18.623Z,14.00
2022-09-24T02:38:47.391Z,14.00
2022-09-24T02:41:16.234Z,14.00
2022-09-24T02:43:44.854Z,13.90
2022-09-24T02:46:14.686Z,13.90
2022-09-24T02:48:43.220Z,13.90
2022-09-24T02:51:11.999Z,13.90
2022-09-24T02:53:40.409Z,13.80
2022-09-24T02:56:09.087Z,13.80
2022-09-24T02:58:38.162Z,13.80
2022-09-24T03:01:07.345Z,13.90
2022-09-24T03:03:37.112Z,13.80
2022-09-24T03:06:06.484Z,13.80
2022-09-24T03:08:35.725Z,13.80
2022-09-24T03:11:04.150Z,13.80
2022-09-24T03:13:32.628Z,13.80
2022-09-24T03:16:01.127Z,13.80
2022-09-24T03:18:29.584Z,13.80
2022-09-24T03:21:01.476Z,13.80
2022-09-24T03:23:30.068Z,13.80
2022-09-24T03:25:59.221Z,13.80
2022-09-24T03:28:28.324Z,13.80
2022-09-24T03:31:02.284Z,13.70
2022-09-24T03:33:32.760Z,13.70
2022-09-24T03:36:04.800Z,13.70
2022-09-24T03:38:33.852Z,13.70
2022-09-24T03:41:02.952Z,13.60
2022-09-24T03:43:31.578Z,13.70
2022-09-24T03:46:00.428Z,13.70
2022-09-24T03:48:29.799Z,13.60
2022-09-24T03:50:58.204Z,13.60
2022-09-24T03:53:27.916Z,13.60
2022-09-24T03:55:57.697Z,13.60
2022-09-24T03:58:26.386Z,13.60
2022-09-24T04:00:55.631Z,13.60
2022-09-24T04:03:24.095Z,13.60
2022-09-24T04:05:52.952Z,13.60
2022-09-24T04:08:22.036Z,13.60
2022-09-24T04:10:52.696Z,13.60
2022-09-24T04:13:21.352Z,13.60
2022-09-24T04:15:50.263Z,13.60
2022-09-24T04:18:19.434Z,13.60
2022-09-24T04:20:47.938Z,13.60
2022-09-24T04:23:16.468Z,13.60
2022-09-24T04:25:45.348Z,13.60
2022-09-24T04:28:15.196Z,13.70
2022-09-24T04:30:43.571Z,13.80
2022-09-24T04:33:12.536Z,13.70
2022-09-24T04:35:40.969Z,13.60
2022-09-24T04:38:09.363Z,13.70
2022-09-24T04:40:38.091Z,13.60
2022-09-24T04:43:06.709Z,13.70
2022-09-24T04:45:38.322Z,13.60
2022-09-24T04:48:07.029Z,13.60
2022-09-24T04:50:35.457Z,13.60
2022-09-24T04:53:03.879Z,13.60
2022-09-24T04:55:33.047Z,13.70
2022-09-24T04:58:01.929Z,13.60
2022-09-24T05:00:31.567Z,13.60
2022-09-24T05:03:04.240Z,13.60
2022-09-24T05:05:33.495Z,13.60
2022-09-24T05:08:02.397Z,13.60
2022-09-24T05:10:33.117Z,13.60
2022-09-24T05:13:02.136Z,13.60
2022-09-24T05:15:31.008Z,13.60
2022-09-24T05:18:01.014Z,13.60
2022-09-24T05:20:29.420Z,13.60
2022-09-24T05:22:57.819Z,13.70
2022-09-24T05:25:26.264Z,13.70
2022-09-24T05:27:55.525Z,13.70
2022-09-24T05:30:26.113Z,13.70
2022-09-24T05:32:54.536Z,13.70
2022-09-24T05:35:25.080Z,13.80
2022-09-24T05:37:54.119Z,13.70
2022-09-24T05:40:40.508Z,13.90
2022-09-24T05:43:09.235Z,13.80
2022-09-24T05:45:37.772Z,13.80
2022-09-24T05:48:06.695Z,13.80
2022-09-24T05:50:36.474Z,13.80
2022-09-24T05:53:06.374Z,13.80
2022-09-24T05:55:34.731Z,13.80
2022-09-24T05:58:07.697Z,13.80
2022-09-24T06:00:36.917Z,13.70
2022-09-24T06:03:07.845Z,13.70
2022-09-24T06:05:37.781Z,13.80
2022-09-24T06:08:08.025Z,13.80
2022-09-24T06:10:37.261Z,13.80
2022-09-24T06:13:05.680Z,13.70
2022-09-24T06:15:34.989Z,13.70
2022-09-24T06:18:03.399Z,13.80
2022-09-24T06:20:32.131Z,13.80
2022-09-24T06:23:02.930Z,13.80
2022-09-24T06:25:32.138Z,13.80
2022-09-24T06:28:02.109Z,13.80
2022-09-24T06:30:32.153Z,13.70
2022-09-24T06:33:05.283Z,13.90
2022-09-24T06:35:35.741Z,13.80
2022-09-24T06:38:06.018Z,13.80
2022-09-24T06:40:37.572Z,13.90
2022-09-24T06:43:07.007Z,13.90
2022-09-24T06:45:36.132Z,14.10
2022-09-24T06:48:06.870Z,13.90
2022-09-24T06:50:36.364Z,13.90
2022-09-24T06:53:08.360Z,13.90
2022-09-24T06:55:37.748Z,13.90
2022-09-24T06:58:07.983Z,13.90
2022-09-24T07:00:38.631Z,13.90
2022-09-24T07:03:08.407Z,13.90
2022-09-24T07:05:41.063Z,13.90
2022-09-24T07:08:13.068Z,14.00
2022-09-24T07:10:43.707Z,14.00
2022-09-24T07:13:13.935Z,14.00
2022-09-24T07:15:42.898Z,14.00
2022-09-24T07:18:11.633Z,14.10
2022-09-24T07:20:40.387Z,14.10
2022-09-24T07:23:11.290Z,14.10
2022-09-24T07:25:41.260Z,14.10
2022-09-24T07:28:12.582Z,14.10
2022-09-24T07:30:41.512Z,14.20
2022-09-24T07:33:10.569Z,14.20
2022-09-24T07:35:40.256Z,14.20
2022-09-24T07:38:12.479Z,14.20
2022-09-24T07:40:42.506Z,14.20
2022-09-24T07:43:13.681Z,14.20
2022-09-24T07:45:42.950Z,14.20
2022-09-24T07:48:12.807Z,14.20
2022-09-24T07:50:43.043Z,14.20
2022-09-24T07:53:13.366Z,14.30
2022-09-24T07:55:43.286Z,14.30
2022-09-24T07:58:14.543Z,14.30
2022-09-24T08:00:47.037Z,14.30
2022-09-24T08:03:15.596Z,14.30
2022-09-24T08:05:45.447Z,14.40
2022-09-24T08:08:14.676Z,14.40
2022-09-24T08:10:45.021Z,14.40
2022-09-24T08:13:13.637Z,14.40
2022-09-24T08:15:42.133Z,14.40
2022-09-24T08:18:12.722Z,14.40
2022-09-24T08:20:41.173Z,14.40
2022-09-24T08:23:11.047Z,14.40
2022-09-24T08:25:39.646Z,14.40
2022-09-24T08:28:12.022Z,14.40
2022-09-24T08:30:40.962Z,14.50
2022-09-24T08:33:09.945Z,14.50
2022-09-24T08:35:40.027Z,14.50
2022-09-24T08:38:09.812Z,14.50
2022-09-24T08:40:43.889Z,14.40
2022-09-24T08:43:27.151Z,14.40
2022-09-24T08:46:17.473Z,14.40
2022-09-24T08:48:51.420Z,14.40
2022-09-24T08:51:21.985Z,14.50
2022-09-24T08:53:58.693Z,14.50
2022-09-24T08:56:30.419Z,14.40
2022-09-24T08:59:03.098Z,14.40
2022-09-24T09:01:40.653Z,14.40
2022-09-24T09:04:22.685Z,14.40
2022-09-24T09:07:07.524Z,14.40
2022-09-24T09:09:45.807Z,14.50
2022-09-24T09:12:18.725Z,14.50
2022-09-24T09:14:55.347Z,14.50
2022-09-24T09:17:45.638Z,14.50
2022-09-24T09:20:19.902Z,14.50
2022-09-24T09:22:51.037Z,14.50
2022-09-24T09:25:22.232Z,14.60
2022-09-24T09:28:00.680Z,14.60
2022-09-24T09:30:38.450Z,14.70
2022-09-24T09:33:26.984Z,14.70
2022-09-24T09:36:04.273Z,14.70
2022-09-24T09:38:43.655Z,14.70
2022-09-24T09:41:21.705Z,14.70
2022-09-24T09:43:50.459Z,14.70
2022-09-24T09:46:27.289Z,14.70
2022-09-24T09:49:00.928Z,14.70
2022-09-24T09:51:37.089Z,14.60
2022-09-24T09:54:06.175Z,14.70
2022-09-24T09:56:36.920Z,14.70
2022-09-24T09:59:17.745Z,14.70
2022-09-24T10:01:50.341Z,14.70
2022-09-24T10:04:39.520Z,14.70
2022-09-24T10:07:10.644Z,14.80
2022-09-24T10:09:40.433Z,14.70
2022-09-24T10:12:18.076Z,14.90
2022-09-24T10:14:57.227Z,14.80
2022-09-24T10:17:31.243Z,14.80
2022-09-24T10:20:02.808Z,14.80
2022-09-24T10:22:32.245Z,14.80
2022-09-24T10:25:02.088Z,14.80
2022-09-24T10:27:34.937Z,14.80
2022-09-24T10:30:23.094Z,14.90
2022-09-24T10:32:59.394Z,14.90
2022-09-24T10:35:29.328Z,15.00
2022-09-24T10:37:59.429Z,14.90
2022-09-24T10:40:31.008Z,15.00
2022-09-24T10:43:01.540Z,15.00
2022-09-24T10:46:01.218Z,15.00
2022-09-24T10:48:39.617Z,15.00
2022-09-24T10:51:28.807Z,14.90
2022-09-24T10:54:16.204Z,14.90
2022-09-24T10:56:46.884Z,15.00
2022-09-24T10:59:36.121Z,14.90
2022-09-24T11:02:28.919Z,14.90
2022-09-24T11:05:00.724Z,14.90
2022-09-24T11:07:47.940Z,14.80
2022-09-24T11:10:25.075Z,14.80
2022-09-24T11:13:04.813Z,14.80
2022-09-24T11:15:58.632Z,14.80
2022-09-24T11:18:37.627Z,14.70
2022-09-24T11:21:21.268Z,14.80
2022-09-24T11:24:07.503Z,14.80
2022-09-24T11:26:47.480Z,14.80
2022-09-24T11:29:44.777Z,14.90
2022-09-24T11:32:19.348Z,15.00
2022-09-24T11:35:05.610Z,15.00
2022-09-24T11:37:51.427Z,15.00
2022-09-24T11:40:35.313Z,15.10
2022-09-24T11:43:20.265Z,15.10
2022-09-24T11:45:59.147Z,15.20
2022-09-24T11:48:56.415Z,15.20
2022-09-24T11:51:32.522Z,15.20
2022-09-24T11:54:08.891Z,15.20
2022-09-24T11:56:41.631Z,15.30
2022-09-24T11:59:17.476Z,15.30
2022-09-24T12:01:51.248Z,15.30
2022-09-24T12:04:27.268Z,15.30
2022-09-24T12:06:59.968Z,15.30
2022-09-24T12:09:34.504Z,15.20
2022-09-24T12:12:05.915Z,15.20
2022-09-24T12:14:45.723Z,15.20
2022-09-24T12:17:19.854Z,15.10
2022-09-24T12:19:54.430Z,15.00
2022-09-24T12:22:24.338Z,14.90
2022-09-24T12:24:58.379Z,14.80
2022-09-24T12:27:32.539Z,14.70
2022-09-24T12:30:23.483Z,14.60
2022-09-24T12:32:59.112Z,14.50
2022-09-24T12:35:43.648Z,14.50
2022-09-24T12:38:17.209Z,14.50
2022-09-24T12:41:21.261Z,14.40
2022-09-24T12:43:55.421Z,14.40
2022-09-24T12:46:27.522Z,14.40
2022-09-24T12:48:56.457Z,14.50
2022-09-24T12:51:25.613Z,14.40
2022-09-24T12:54:06.735Z,14.30
2022-09-24T12:56:36.586Z,14.30
2022-09-24T12:59:05.576Z,14.30
2022-09-24T13:01:35.839Z,14.30
2022-09-24T13:04:27.611Z,14.30
2022-09-24T13:06:56.457Z,14.30
2022-09-24T13:09:37.194Z,14.30
2022-09-24T13:12:21.156Z,14.40
2022-09-24T13:14:57.491Z,14.30
2022-09-24T13:17:26.298Z,14.30
2022-09-24T13:19:59.584Z,14.30
2022-09-24T13:22:30.118Z,14.30
2022-09-24T13:25:22.564Z,14.30
2022-09-24T13:28:02.009Z,14.40
2022-09-24T13:30:38.726Z,14.40
2022-09-24T13:33:21.141Z,14.50
2022-09-24T13:36:07.379Z,14.50
2022-09-24T13:38:39.893Z,14.60
2022-09-24T13:41:23.879Z,14.50
2022-09-24T13:43:59.716Z,14.50
2022-09-24T13:46:30.262Z,14.50
2022-09-24T13:49:03.497Z,14.50
2022-09-24T13:51:37.481Z,14.60
2022-09-24T13:54:14.128Z,14.60
2022-09-24T13:56:43.268Z,14.60
2022-09-24T13:59:14.032Z,14.60
2022-09-24T14:01:44.445Z,14.60
2022-09-24T14:04:19.433Z,14.60
2022-09-24T14:06:50.901Z,14.70
2022-09-24T14:09:28.954Z,14.70
2022-09-24T14:11:59.452Z,14.70
2022-09-24T14:14:31.360Z,14.70
2022-09-24T14:17:10.135Z,14.70
2022-09-24T14:19:38.619Z,14.70
2022-09-24T14:22:13.393Z,14.80
2022-09-24T14:24:45.919Z,14.80
2022-09-24T14:27:17.986Z,14.80
2022-09-24T14:29:51.478Z,14.80
2022-09-24T14:32:23.954Z,14.80
2022-09-24T14:34:55.596Z,14.80
2022-09-24T14:37:27.772Z,14.90
2022-09-24T14:40:02.722Z,14.90
2022-09-24T14:42:37.130Z,14.90
2022-09-24T14:45:09.616Z,15.00
2022-09-24T14:47:39.096Z,15.00
2022-09-24T14:50:28.385Z,15.00
2022-09-24T14:52:57.783Z,15.00
2022-09-24T14:55:38.753Z,15.00
2022-09-24T14:58:07.383Z,15.00
2022-09-24T15:00:47.632Z,15.10
2022-09-24T15:03:20.651Z,15.10
2022-09-24T15:05:49.116Z,15.20
2022-09-24T15:08:27.346Z,15.20
2022-09-24T15:10:57.839Z,15.20
2022-09-24T15:13:30.638Z,15.30
2022-09-24T15:16:06.820Z,15.30
2022-09-24T15:18:36.300Z,15.30
2022-09-24T15:21:08.226Z,15.40
2022-09-24T15:23:36.702Z,15.30
2022-09-24T15:26:05.473Z,15.30
2022-09-24T15:28:33.882Z,15.30
2022-09-24T15:31:03.731Z,15.30
2022-09-24T15:33:32.162Z,15.20
2022-09-24T15:36:00.640Z,15.20
2022-09-24T15:38:29.062Z,15.10
2022-09-24T15:40:57.491Z,15.10
2022-09-24T15:43:26.288Z,15.10
2022-09-24T15:45:54.779Z,15.10
2022-09-24T15:48:24.613Z,15.10
2022-09-24T15:50:53.313Z,15.00
2022-09-24T15:53:24.776Z,15.00
2022-09-24T15:55:55.801Z,14.90
2022-09-24T15:58:24.846Z,14.90
2022-09-24T16:00:53.805Z,14.90
2022-09-24T16:03:27.042Z,14.80
2022-09-24T16:05:56.421Z,14.80
2022-09-24T16:08:24.957Z,14.80
2022-09-24T16:10:54.230Z,14.70
2022-09-24T16:13:23.255Z,14.70
2022-09-24T16:15:51.737Z,14.80
2022-09-24T16:18:22.101Z,14.60
2022-09-24T16:20:51.880Z,14.60
2022-09-24T16:23:20.278Z,14.50
2022-09-24T16:25:56.611Z,14.50
2022-09-24T16:28:25.301Z,14.40
2022-09-24T16:30:53.982Z,14.50
2022-09-24T16:33:23.429Z,14.50
2022-09-24T16:35:53.300Z,14.40
2022-09-24T16:38:23.201Z,14.40
2022-09-24T16:41:00.627Z,14.40
2022-09-24T16:43:29.388Z,14.50
2022-09-24T16:46:03.536Z,14.40
2022-09-24T16:48:32.605Z,14.40
2022-09-24T16:51:07.488Z,14.40
2022-09-24T16:53:36.566Z,14.30
2022-09-24T16:56:07.718Z,14.30
2022-09-24T16:58:36.650Z,14.20
2022-09-24T17:01:06.037Z,14.20
2022-09-24T17:03:34.726Z,14.20
2022-09-24T17:06:05.113Z,14.20
2022-09-24T17:08:49.158Z,14.10
2022-09-24T17:11:18.650Z,14.10
2022-09-24T17:13:47.808Z,14.20
2022-09-24T17:16:16.952Z,14.10
2022-09-24T17:18:46.049Z,14.10
2022-09-24T17:21:16.789Z,14.00
2022-09-24T17:23:45.185Z,14.00
2022-09-24T17:26:15.868Z,13.90
2022-09-24T17:28:47.194Z,13.90
2022-09-24T17:31:17.297Z,13.90
2022-09-24T17:33:47.787Z,13.90
2022-09-24T17:36:18.798Z,13.90
2022-09-24T17:38:47.211Z,13.90
2022-09-24T17:41:15.850Z,13.80
2022-09-24T17:43:44.240Z,13.80
2022-09-24T17:46:15.163Z,13.80
2022-09-24T17:48:46.674Z,13.70
2022-09-24T17:51:19.135Z,13.70
2022-09-24T17:53:48.126Z,13.70
2022-09-24T17:56:16.934Z,13.70
2022-09-24T17:58:47.812Z,13.70
2022-09-24T18:01:21.994Z,13.70
2022-09-24T18:03:54.132Z,13.70
2022-09-24T18:06:28.126Z,13.60
2022-09-24T18:08:58.665Z,13.60
2022-09-24T18:11:28.983Z,13.60
2022-09-24T18:13:59.097Z,13.60
2022-09-24T18:16:29.750Z,13.60
2022-09-24T18:19:00.741Z,13.60
2022-09-24T18:21:31.101Z,13.60
2022-09-24T18:24:01.034Z,13.60
2022-09-24T18:26:32.319Z,13.60
2022-09-24T18:29:03.888Z,13.50
2022-09-24T18:31:33.228Z,13.50
2022-09-24T18:34:05.754Z,13.40
2022-09-24T18:36:37.112Z,13.40
2022-09-24T18:39:07.421Z,13.30
2022-09-24T18:41:36.975Z,13.20
2022-09-24T18:44:05.936Z,13.20
2022-09-24T18:46:35.264Z,13.10
2022-09-24T18:49:06.174Z,13.10
2022-09-24T18:51:38.066Z,13.10
2022-09-24T18:54:08.311Z,13.00
2022-09-24T18:56:37.255Z,12.90
2022-09-24T18:59:09.895Z,12.90
2022-09-24T19:01:39.436Z,12.90
2022-09-24T19:04:10.751Z,12.80
2022-09-24T19:06:42.685Z,12.80
2022-09-24T19:09:13.280Z,12.70
2022-09-24T19:11:42.352Z,12.70
2022-09-24T19:14:11.378Z,12.60
2022-09-24T19:16:39.827Z,12.60
2022-09-24T19:19:08.604Z,12.60
2022-09-24T19:21:37.101Z,12.50
2022-09-24T19:24:08.028Z,12.40
2022-09-24T19:26:37.302Z,12.40
2022-09-24T19:29:06.332Z,12.30
2022-09-24T19:31:37.422Z,12.30
2022-09-24T19:34:07.573Z,12.30
2022-09-24T19:36:42.982Z,12.30
2022-09-24T19:39:15.981Z,12.30
2022-09-24T19:41:44.954Z,12.30
2022-09-24T19:44:13.932Z,12.20
2022-09-24T19:46:42.696Z,12.20
2022-09-24T19:49:11.277Z,12.20
2022-09-24T19:51:40.622Z,12.20
2022-09-24T19:54:09.639Z,12.20
2022-09-24T19:56:40.024Z,12.20
2022-09-24T19:59:09.485Z,12.10
2022-09-24T20:01:38.031Z,12.10
2022-09-24T20:04:08.540Z,12.10
2022-09-24T20:06:38.372Z,12.10
2022-09-24T20:09:07.820Z,12.10
2022-09-24T20:11:36.654Z,12.10
2022-09-24T20:14:08.884Z,12.00
2022-09-24T20:16:38.042Z,12.10
2022-09-24T20:19:06.466Z,12.10
2022-09-24T20:21:35.922Z,12.10
2022-09-24T20:24:06.301Z,12.00
2022-09-24T20:26:52.732Z,12.00
2022-09-24T20:29:23.282Z,12.00
2022-09-24T20:31:55.347Z,12.00
2022-09-24T20:34:25.726Z,11.90
2022-09-24T20:36:54.132Z,11.90
2022-09-24T20:39:22.604Z,11.90
2022-09-24T20:41:51.014Z,11.90
2022-09-24T20:44:21.399Z,11.80
2022-09-24T20:46:51.400Z,11.80
2022-09-24T20:49:22.561Z,11.80
2022-09-24T20:51:56.638Z,11.80
2022-09-24T20:54:26.537Z,11.70
2022-09-24T20:56:54.976Z,11.70
2022-09-24T20:59:24.964Z,11.70
2022-09-24T21:01:55.568Z,11.70
2022-09-24T21:04:24.523Z,11.70
2022-09-24T21:06:54.586Z,11.70
2022-09-24T21:09:23.195Z,11.70
2022-09-24T21:11:53.066Z,11.70
2022-09-24T21:14:22.284Z,11.70
2022-09-24T21:16:50.734Z,11.70
2022-09-24T21:19:20.617Z,11.70
2022-09-24T21:21:49.038Z,11.70
2022-09-24T21:24:17.575Z,11.70
2022-09-24T21:26:46.530Z,11.60
2022-09-24T21:29:17.329Z,11.60
2022-09-24T21:31:47.427Z,11.70
2022-09-24T21:34:17.800Z,11.50
2022-09-24T21:36:48.191Z,11.50
2022-09-24T21:39:19.124Z,11.50
2022-09-24T21:41:49.822Z,11.50
2022-09-24T21:44:19.219Z,11.40
2022-09-24T21:46:48.200Z,11.40
2022-09-24T21:49:17.223Z,11.30
2022-09-24T21:51:47.707Z,11.30
2022-09-24T21:54:18.049Z,11.30
2022-09-24T21:56:47.195Z,11.20
2022-09-24T21:59:34.087Z,11.30
2022-09-24T22:02:03.339Z,11.20
2022-09-24T22:04:33.215Z,11.10
2022-09-24T22:07:03.540Z,11.10
2022-09-24T22:09:32.929Z,11.20
2022-09-24T22:12:02.352Z,11.00
2022-09-24T22:14:31.059Z,11.00
2022-09-24T22:16:59.531Z,11.00
2022-09-24T22:19:28.005Z,11.00
2022-09-24T22:21:56.506Z,11.00
2022-09-24T22:24:26.284Z,10.90
2022-09-24T22:26:55.180Z,10.90
2022-09-24T22:29:23.772Z,10.80
2022-09-24T22:31:52.189Z,10.80
2022-09-24T22:34:38.063Z,10.70
2022-09-24T22:37:07.910Z,10.70
2022-09-24T22:39:37.697Z,10.60
2022-09-24T22:42:06.830Z,10.60
2022-09-24T22:44:35.239Z,10.60
2022-09-24T22:47:03.660Z,10.60
2022-09-24T22:49:32.658Z,10.50
2022-09-24T22:52:01.231Z,10.50
2022-09-24T22:54:30.399Z,10.40
2022-09-24T22:57:00.215Z,10.40
2022-09-24T22:59:28.604Z,10.40
2022-09-24T23:01:57.034Z,10.40
2022-09-24T23:04:25.487Z,10.30
2022-09-24T23:06:53.836Z,10.20
2022-09-24T23:09:22.323Z,10.40
2022-09-24T23:11:51.529Z,10.20
2022-09-24T23:14:21.325Z,10.10
2022-09-24T23:16:49.829Z,10.10
2022-09-24T23:19:20.011Z,10.10
2022-09-24T23:21:48.656Z,10.00
2022-09-24T23:24:18.551Z,10.00
2022-09-24T23:26:47.675Z,9.90
2022-09-24T23:29:16.470Z,9.90
2022-09-24T23:31:46.232Z,9.90
2022-09-24T23:34:15.015Z,9.90
2022-09-24T23:36:46.067Z,9.90
2022-09-24T23:39:14.956Z,9.90
2022-09-24T23:41:43.438Z,9.90
2022-09-24T23:44:12.040Z,9.90
2022-09-24T23:46:40.607Z,9.90
2022-09-24T23:49:10.421Z,9.90
2022-09-24T23:51:38.842Z,9.90
2022-09-24T23:54:07.659Z,9.80
2022-09-24T23:56:36.263Z,9.80
2022-09-24T23:59:05.255Z,9.80
